Time;durP1;ratioP1;P1;durP2;ratioP2;P2;SDS_P1;SDS_P2;PMS_P1;PMS_P2;Temp;Humidity;BMP_temperature;BMP_pressure;BME280_temperature;BME280_humidity;BME280_pressure;Samples;Min_cycle;Max_cycle;Signal;HPM_P1;HPM_P2
2022/05/24 00:01:23;;;;;;;11.07;4.70;;;13.10;99.90;;;;;;5028043;28;20057;-85
2022/05/24 00:03:49;;;;;;;10.25;5.70;;;13.10;99.90;;;;;;5033369;28;20479;-84
2022/05/24 00:06:15;;;;;;;10.65;6.50;;;13.10;99.90;;;;;;5034405;28;20041;-85
2022/05/24 00:08:41;;;;;;;16.17;11.38;;;13.10;99.90;;;;;;5034355;28;20147;-85
2022/05/24 00:11:07;;;;;;;17.17;13.25;;;13.10;99.90;;;;;;5032938;28;20049;-86
2022/05/24 00:13:33;;;;;;;21.83;15.02;;;13.10;99.90;;;;;;5034123;28;20422;-85
2022/05/24 00:15:58;;;;;;;28.58;17.40;;;13.10;99.90;;;;;;5030491;28;20104;-84
2022/05/24 00:18:27;;;;;;;26.77;17.05;;;13.10;99.90;;;;;;5034248;28;20060;-85
2022/05/24 00:20:56;;;;;;;29.83;17.38;;;13.20;99.90;;;;;;5030149;28;20052;-85
2022/05/24 00:23:24;;;;;;;30.42;17.80;;;13.10;99.90;;;;;;5031669;28;20053;-85
2022/05/24 00:25:55;;;;;;;24.02;15.60;;;13.10;99.90;;;;;;5032438;28;20521;-84
2022/05/24 00:28:23;;;;;;;22.70;15.70;;;13.10;99.90;;;;;;5032607;28;20050;-84
2022/05/24 00:30:50;;;;;;;22.55;15.88;;;13.10;99.90;;;;;;5032322;28;20063;-87
2022/05/24 00:33:16;;;;;;;20.27;13.20;;;13.10;99.90;;;;;;5033908;28;20049;-85
2022/05/24 00:35:43;;;;;;;22.83;14.75;;;13.10;99.90;;;;;;5033781;28;20068;-85
2022/05/24 00:38:12;;;;;;;18.70;13.25;;;13.10;99.90;;;;;;5032957;28;20137;-85
2022/05/24 00:41:04;;;;;;;20.42;12.00;;;13.00;99.90;;;;;;5033264;28;20053;-85
2022/05/24 00:43:38;;;;;;;16.67;11.65;;;13.10;99.90;;;;;;5032995;28;20423;-85
2022/05/24 00:46:43;;;;;;;28.60;13.60;;;13.00;99.90;;;;;;5032089;28;20506;-85
2022/05/24 00:49:32;;;;;;;21.48;13.10;;;13.00;99.90;;;;;;5014426;28;20095;-85
2022/05/24 00:52:17;;;;;;;19.38;11.75;;;12.90;99.90;;;;;;5014903;28;20077;-85
2022/05/24 00:54:44;;;;;;;17.17;11.63;;;12.80;99.90;;;;;;5031225;28;20132;-83
2022/05/24 00:57:17;;;;;;;18.92;11.77;;;13.00;99.90;;;;;;5014977;28;20056;-85
2022/05/24 01:02:55;;;;;;;17.20;10.60;;;12.80;99.90;;;;;;5010759;28;20053;-85
2022/05/24 01:05:24;;;;;;;19.00;12.20;;;12.60;99.90;;;;;;5031338;28;20406;-85
2022/05/24 01:07:50;;;;;;;22.20;12.73;;;12.60;99.90;;;;;;5012387;28;20060;-88
2022/05/24 01:10:21;;;;;;;21.73;12.93;;;12.70;99.90;;;;;;5014765;28;20045;-86
2022/05/24 01:12:51;;;;;;;;;;;12.50;99.90;;;;;;5035209;28;20575;-88
2022/05/24 01:15:18;;;;;;;20.77;11.95;;;12.50;99.90;;;;;;5014542;28;20398;-86
2022/05/24 01:17:44;;;;;;;19.38;12.07;;;12.50;99.90;;;;;;5014421;28;20403;-86
2022/05/24 01:20:11;;;;;;;18.67;11.75;;;12.50;99.90;;;;;;5015015;28;20131;-87
2022/05/24 01:22:58;;;;;;;21.15;12.10;;;12.40;99.90;;;;;;5030946;28;20041;-85
2022/05/24 01:25:48;;;;;;;21.08;13.20;;;12.50;99.90;;;;;;5030132;28;20071;-86
2022/05/24 01:28:34;;;;;;;18.45;11.38;;;12.50;99.90;;;;;;5031509;28;20069;-88
2022/05/24 01:31:01;;;;;;;22.42;13.45;;;12.50;99.90;;;;;;5031032;28;20054;-85
2022/05/24 01:36:13;;;;;;;20.48;11.75;;;12.50;99.90;;;;;;5031676;28;20076;-86
2022/05/24 01:38:51;;;;;;;18.75;12.18;;;12.50;99.90;;;;;;5032280;28;20053;-85
2022/05/24 01:41:21;;;;;;;19.08;12.55;;;12.50;99.90;;;;;;5030246;28;20049;-85
2022/05/24 01:43:49;;;;;;;22.02;13.10;;;12.50;99.90;;;;;;5033139;28;20053;-86
2022/05/24 01:46:17;;;;;;;22.58;12.93;;;12.60;99.90;;;;;;5032041;28;20107;-85
2022/05/24 01:48:54;;;;;;;25.08;16.08;;;12.60;99.90;;;;;;5032755;28;20056;-85
2022/05/24 01:51:26;;;;;;;23.48;15.77;;;12.60;99.90;;;;;;5032522;28;20061;-86
2022/05/24 01:53:56;;;;;;;28.58;17.35;;;12.70;99.90;;;;;;5030912;28;20053;-85
2022/05/24 01:56:36;;;;;;;30.20;17.75;;;12.70;99.90;;;;;;5032260;28;20566;-85
2022/05/24 01:59:04;;;;;;;31.25;19.25;;;12.80;99.90;;;;;;5016859;28;20049;-85
2022/05/24 02:01:53;;;;;;;37.53;20.67;;;12.80;99.90;;;;;;5031610;28;20037;-86
2022/05/24 02:04:20;;;;;;;28.60;20.70;;;12.80;99.90;;;;;;5032776;28;20049;-88
2022/05/24 02:06:57;;;;;;;41.50;24.30;;;12.80;99.90;;;;;;5031473;28;20052;-86
2022/05/24 02:09:23;;;;;;;42.40;24.73;;;12.80;99.90;;;;;;5029365;28;20060;-85
2022/05/24 02:11:49;;;;;;;43.95;26.65;;;12.90;99.90;;;;;;5032246;28;20124;-84
2022/05/24 02:14:21;;;;;;;45.53;27.08;;;12.90;99.90;;;;;;5029944;28;20149;-87
2022/05/24 02:16:56;;;;;;;45.22;27.33;;;12.90;99.90;;;;;;5039684;28;20071;-86
2022/05/24 02:19:24;;;;;;;41.70;28.30;;;12.90;99.90;;;;;;5030654;28;20065;-86
2022/05/24 02:21:56;;;;;;;42.45;27.50;;;13.10;99.90;;;;;;5026708;28;20064;-87
2022/05/24 02:24:24;;;;;;;47.65;29.38;;;13.00;99.90;;;;;;5031935;28;20129;-86
2022/05/24 02:26:51;;;;;;;41.85;28.00;;;13.00;99.90;;;;;;5031490;28;20368;-86
2022/05/24 02:29:20;;;;;;;45.13;28.60;;;13.00;99.90;;;;;;5031256;28;20039;-87
2022/05/24 02:31:46;;;;;;;47.45;29.40;;;13.00;99.90;;;;;;5031337;28;20046;-86
2022/05/24 02:34:12;;;;;;;48.58;29.73;;;13.00;99.90;;;;;;5031109;28;20533;-87
2022/05/24 02:36:38;;;;;;;45.40;30.30;;;13.00;99.90;;;;;;5031238;28;20091;-86
2022/05/24 02:39:05;;;;;;;45.35;29.10;;;13.20;99.90;;;;;;5013919;28;20148;-86
2022/05/24 02:41:31;;;;;;;49.03;30.70;;;13.00;99.90;;;;;;5031470;28;20099;-86
2022/05/24 02:44:04;;;;;;;47.03;29.45;;;13.10;99.90;;;;;;5031042;28;20046;-87
2022/05/24 02:46:32;;;;;;;46.90;30.83;;;13.10;99.90;;;;;;5029445;28;20119;-86
2022/05/24 02:48:58;;;;;;;45.58;30.50;;;13.10;99.90;;;;;;5013742;28;20497;-85
2022/05/24 02:51:26;;;;;;;46.30;30.42;;;13.10;99.90;;;;;;5031267;28;20049;-88
2022/05/24 02:53:52;;;;;;;43.65;29.67;;;13.10;99.90;;;;;;5031375;28;20049;-86
2022/05/24 02:56:17;;;;;;;43.08;30.83;;;13.20;99.90;;;;;;5031034;28;20038;-86
2022/05/24 02:58:43;;;;;;;42.90;29.60;;;13.20;99.90;;;;;;5031259;28;20402;-87
2022/05/24 03:01:15;;;;;;;49.08;31.60;;;13.20;99.90;;;;;;5031059;28;20038;-89
2022/05/24 03:03:41;;;;;;;42.60;29.85;;;13.20;99.90;;;;;;5030762;28;20045;-86
2022/05/24 03:06:08;;;;;;;38.72;29.60;;;13.20;99.90;;;;;;5013503;28;20557;-86
2022/05/24 03:11:18;;;;;;;44.75;30.17;;;13.20;99.90;;;;;;5032562;28;20045;-88
2022/05/24 03:16:28;;;;;;;36.78;27.67;;;13.20;99.90;;;;;;5034128;28;20080;-85
2022/05/24 03:18:53;;;;;;;38.30;27.75;;;13.20;99.90;;;;;;5035317;28;20073;-86
2022/05/24 03:21:19;;;;;;;39.92;27.42;;;13.30;99.90;;;;;;5034943;28;20056;-86
2022/05/24 03:23:44;;;;;;;38.15;27.23;;;13.30;99.90;;;;;;5018364;28;20128;-86
2022/05/24 03:26:11;;;;;;;41.10;28.20;;;13.40;99.90;;;;;;5035368;28;20384;-88
2022/05/24 03:28:37;;;;;;;40.47;26.35;;;13.30;99.90;;;;;;5017920;28;20050;-87
2022/05/24 03:31:04;;;;;;;37.75;27.13;;;13.30;99.90;;;;;;5017706;28;20045;-86
2022/05/24 03:33:30;;;;;;;39.88;27.58;;;13.20;99.90;;;;;;5034977;28;20045;-86
2022/05/24 03:35:56;;;;;;;33.75;25.20;;;13.30;99.90;;;;;;5035136;28;20045;-88
2022/05/24 03:38:22;;;;;;;40.20;26.88;;;13.20;99.90;;;;;;5036033;28;20067;-87
2022/05/24 03:40:47;;;;;;;38.78;26.02;;;13.20;99.90;;;;;;5035347;28;20438;-90
2022/05/24 03:43:15;;;;;;;36.75;25.40;;;13.30;99.90;;;;;;5032428;28;20487;-85
2022/05/24 03:45:41;;;;;;;34.63;24.63;;;13.20;99.90;;;;;;5033183;28;20056;-86
2022/05/24 03:48:07;;;;;;;42.33;26.75;;;13.20;99.90;;;;;;5033835;28;20045;-84
2022/05/24 03:50:33;;;;;;;37.55;26.55;;;13.20;99.90;;;;;;5033603;28;20529;-86
2022/05/24 03:52:59;;;;;;;31.70;25.90;;;13.20;99.90;;;;;;5033794;28;20041;-88
2022/05/24 03:55:24;;;;;;;39.55;25.20;;;13.20;99.90;;;;;;5033598;28;20411;-85
2022/05/24 03:58:00;;;;;;;35.08;26.10;;;13.30;99.90;;;;;;5035096;28;20080;-87
2022/05/24 04:00:37;;;;;;;43.00;28.13;;;13.20;99.90;;;;;;5034096;28;20398;-86
2022/05/24 04:03:04;;;;;;;41.38;28.40;;;13.20;99.90;;;;;;5032991;28;20390;-88
2022/05/24 04:05:30;;;;;;;41.95;28.15;;;13.20;99.90;;;;;;5031665;28;20129;-86
2022/05/24 04:07:57;;;;;;;40.60;28.33;;;13.20;99.90;;;;;;5034122;28;20513;-86
2022/05/24 04:10:23;;;;;;;39.88;26.27;;;13.10;99.90;;;;;;5015759;28;20063;-87
2022/05/24 04:12:49;;;;;;;45.80;27.60;;;13.10;99.90;;;;;;5033564;28;20049;-87
2022/05/24 04:15:15;;;;;;;45.88;28.55;;;13.10;99.90;;;;;;5033008;28;20072;-87
2022/05/24 04:17:41;;;;;;;45.35;28.30;;;13.10;99.90;;;;;;5031168;28;20411;-85
2022/05/24 04:20:08;;;;;;;38.28;27.35;;;13.10;99.90;;;;;;5034068;28;20050;-86
2022/05/24 04:22:34;;;;;;;43.30;28.80;;;13.10;99.90;;;;;;5032632;28;20038;-88
2022/05/24 04:25:00;;;;;;;41.47;27.15;;;13.00;99.90;;;;;;5034019;28;20053;-86
2022/05/24 04:27:26;;;;;;;44.10;28.83;;;13.00;99.90;;;;;;5034526;28;20084;-86
2022/05/24 04:29:53;;;;;;;36.53;27.13;;;13.00;99.90;;;;;;5032606;28;20080;-86
2022/05/24 04:32:19;;;;;;;42.95;28.65;;;13.00;99.90;;;;;;5034285;28;20120;-88
2022/05/24 04:34:45;;;;;;;42.25;27.77;;;13.00;99.90;;;;;;5016422;28;20049;-85
2022/05/24 04:37:12;;;;;;;45.97;28.27;;;13.00;99.90;;;;;;5033518;28;20055;-86
2022/05/24 04:39:38;;;;;;;39.78;28.50;;;13.10;99.90;;;;;;5033788;28;20049;-85
2022/05/24 04:42:19;;;;;;;43.65;27.35;;;13.20;99.90;;;;;;5032935;28;20102;-88
2022/05/24 04:45:01;;;;;;;38.80;26.90;;;13.10;99.90;;;;;;5031757;28;20184;-86
2022/05/24 04:47:30;;;;;;;34.47;24.25;;;13.10;99.90;;;;;;5030825;28;20041;-86
2022/05/24 04:49:58;;;;;;;39.30;24.52;;;13.10;99.90;;;;;;5027675;28;20115;-88
2022/05/24 04:52:26;;;;;;;38.15;25.65;;;13.00;99.90;;;;;;5034340;28;20084;-86
2022/05/24 04:54:53;;;;;;;42.10;24.95;;;13.00;99.90;;;;;;5033533;28;20041;-87
2022/05/24 04:57:20;;;;;;;36.30;22.98;;;13.00;99.90;;;;;;5033842;28;20045;-86
2022/05/24 04:59:46;;;;;;;30.48;20.58;;;13.00;99.90;;;;;;5033392;28;20112;-85
2022/05/24 05:02:12;;;;;;;29.73;17.95;;;13.00;99.90;;;;;;5033697;28;20033;-85
2022/05/24 05:04:38;;;;;;;31.70;19.55;;;13.00;99.90;;;;;;5033860;28;20449;-85
2022/05/24 05:07:08;;;;;;;27.02;18.63;;;13.00;99.90;;;;;;5034123;28;20129;-86
2022/05/24 05:09:34;;;;;;;32.72;20.10;;;13.10;99.90;;;;;;5030886;28;20048;-87
2022/05/24 05:12:05;;;;;;;28.45;20.00;;;13.20;99.90;;;;;;5033889;28;20114;-87
2022/05/24 05:14:31;;;;;;;26.65;19.15;;;13.10;99.90;;;;;;5034304;28;20110;-86
2022/05/24 05:16:58;;;;;;;35.72;19.90;;;13.10;99.90;;;;;;5033020;28;20061;-85
2022/05/24 05:19:24;;;;;;;33.05;17.67;;;13.10;99.90;;;;;;5032788;28;20053;-87
2022/05/24 05:21:49;;;;;;;28.75;17.88;;;13.10;99.90;;;;;;5033099;28;20052;-88
2022/05/24 05:24:15;;;;;;;24.80;16.92;;;13.20;99.90;;;;;;5032507;28;20089;-85
2022/05/24 05:26:41;;;;;;;25.27;17.15;;;13.10;99.90;;;;;;5016910;28;20080;-85
2022/05/24 05:29:06;;;;;;;27.38;16.80;;;13.10;99.90;;;;;;5034006;28;20076;-86
2022/05/24 05:31:32;;;;;;;27.45;16.52;;;13.10;99.90;;;;;;5033268;28;20041;-86
2022/05/24 05:34:00;;;;;;;25.27;16.33;;;13.10;99.90;;;;;;5032582;28;20052;-87
2022/05/24 05:36:27;;;;;;;24.58;16.83;;;13.10;99.90;;;;;;5032448;28;20029;-88
2022/05/24 05:38:54;;;;;;;26.17;15.60;;;13.10;99.90;;;;;;5032670;28;20059;-87
2022/05/24 05:41:22;;;;;;;26.95;16.35;;;13.10;99.90;;;;;;5031584;28;20434;-86
2022/05/24 05:43:48;;;;;;;24.92;16.48;;;13.20;99.90;;;;;;5032371;28;20037;-85
2022/05/24 05:46:15;;;;;;;27.30;17.08;;;13.20;99.90;;;;;;5033615;28;20051;-86
2022/05/24 05:48:42;;;;;;;27.73;16.40;;;13.20;99.90;;;;;;5034428;28;20126;-84
2022/05/24 05:51:09;;;;;;;24.55;17.77;;;13.20;99.90;;;;;;5034211;28;20057;-86
2022/05/24 05:53:35;;;;;;;27.13;17.77;;;13.20;99.90;;;;;;5034169;28;20411;-86
2022/05/24 05:56:02;;;;;;;28.65;17.27;;;13.20;99.90;;;;;;5033571;28;20061;-86
2022/05/24 05:58:30;;;;;;;31.13;17.40;;;13.20;99.90;;;;;;5033281;28;20048;-85
2022/05/24 06:00:55;;;;;;;32.55;18.52;;;13.30;99.90;;;;;;5033317;28;20056;-86
2022/05/24 06:03:21;;;;;;;23.60;16.33;;;13.40;99.90;;;;;;5032529;28;20058;-86
2022/05/24 06:05:52;;;;;;;22.88;17.17;;;13.50;99.90;;;;;;5032546;28;20053;-86
2022/05/24 06:08:18;;;;;;;;;;;13.50;99.90;;;;;;5034130;28;20046;-85
2022/05/24 06:10:44;;;;;;;26.13;16.55;;;13.70;99.90;;;;;;5032829;28;19920;-91
2022/05/24 06:13:10;;;;;;;22.27;15.70;;;13.70;99.90;;;;;;5033866;28;20079;-85
2022/05/24 06:15:37;;;;;;;24.65;16.90;;;13.90;99.90;;;;;;5033743;28;20420;-86
2022/05/24 06:18:04;;;;;;;26.15;17.38;;;13.90;99.90;;;;;;5032737;28;20553;-85
2022/05/24 06:20:31;;;;;;;28.15;16.83;;;13.90;99.90;;;;;;5031980;28;20499;-85
2022/05/24 06:22:57;;;;;;;27.55;16.83;;;13.90;99.90;;;;;;5033656;28;20472;-85
2022/05/24 06:25:28;;;;;;;25.70;16.05;;;13.90;99.90;;;;;;5033175;28;20041;-85
2022/05/24 06:27:55;;;;;;;25.45;16.27;;;13.90;99.90;;;;;;5034569;28;20394;-83
2022/05/24 06:30:23;;;;;;;25.13;16.73;;;13.90;99.90;;;;;;5034671;28;20049;-83
2022/05/24 06:32:50;;;;;;;24.27;15.48;;;13.90;99.90;;;;;;5033659;28;20100;-91
2022/05/24 06:35:17;;;;;;;27.05;16.13;;;13.90;99.90;;;;;;5032184;28;20049;-83
2022/05/24 06:37:44;;;;;;;22.95;14.85;;;13.90;99.90;;;;;;5015105;28;20054;-84
2022/05/24 06:40:12;;;;;;;26.50;14.85;;;14.00;99.90;;;;;;5031826;28;20510;-83
2022/05/24 06:42:38;;;;;;;22.17;14.65;;;14.00;99.90;;;;;;5032585;28;20045;-82
2022/05/24 06:45:05;;;;;;;22.80;13.80;;;14.00;99.90;;;;;;5031075;28;20506;-83
2022/05/24 06:47:31;;;;;;;20.27;13.60;;;14.00;99.90;;;;;;5031726;28;20505;-82
2022/05/24 06:49:57;;;;;;;22.05;13.52;;;14.10;99.90;;;;;;5015657;28;20135;-82
2022/05/24 06:52:23;;;;;;;22.60;13.55;;;14.10;99.90;;;;;;5031673;28;20182;-83
2022/05/24 06:54:49;;;;;;;21.13;13.52;;;14.10;99.90;;;;;;5032591;28;20041;-83
2022/05/24 06:57:15;;;;;;;18.58;11.55;;;14.10;99.90;;;;;;5031771;28;20034;-82
2022/05/24 07:02:26;;;;;;;20.77;13.10;;;14.00;99.90;;;;;;5032478;28;20528;-82
2022/05/24 07:04:56;;;;;;;20.15;12.75;;;13.90;99.90;;;;;;5032749;28;20057;-83
2022/05/24 07:07:21;;;;;;;20.33;12.75;;;14.00;99.90;;;;;;5031546;28;20080;-83
2022/05/24 07:09:47;;;;;;;22.85;12.80;;;14.00;99.90;;;;;;5032439;28;20091;-83
2022/05/24 07:12:16;;;;;;;23.83;12.38;;;14.00;99.90;;;;;;5032557;28;20049;-87
2022/05/24 07:14:41;;;;;;;22.77;12.10;;;14.00;99.90;;;;;;5031710;28;20053;-81
2022/05/24 07:17:07;;;;;;;20.42;13.15;;;13.90;99.90;;;;;;5032686;28;20049;-82
2022/05/24 07:19:33;;;;;;;19.70;12.43;;;14.20;99.90;;;;;;5031089;28;20056;-82
2022/05/24 07:21:58;;;;;;;20.70;12.93;;;14.20;99.90;;;;;;5015209;28;20132;-82
2022/05/24 07:24:24;;;;;;;18.58;12.13;;;14.20;99.90;;;;;;5032786;28;20061;-84
2022/05/24 07:26:50;;;;;;;19.83;11.65;;;14.10;99.90;;;;;;5032572;28;20046;-83
2022/05/24 07:29:15;;;;;;;19.98;12.57;;;14.00;99.90;;;;;;5031991;28;20056;-81
2022/05/24 07:31:41;;;;;;;23.85;12.85;;;14.10;99.90;;;;;;5033043;28;20056;-84
2022/05/24 07:34:07;;;;;;;19.63;13.13;;;13.90;99.90;;;;;;5015240;28;20498;-82
2022/05/24 07:36:32;;;;;;;18.35;12.65;;;14.10;99.90;;;;;;5031106;28;20045;-82
2022/05/24 07:39:01;;;;;;;20.38;12.25;;;13.90;99.90;;;;;;5032319;28;20045;-83
2022/05/24 07:46:56;;;;;;;16.42;11.63;;;13.80;99.90;;;;;;5032898;28;20092;-84
2022/05/24 07:49:22;;;;;;;17.88;11.35;;;13.80;99.90;;;;;;5033547;28;20049;-83
2022/05/24 07:51:48;;;;;;;17.40;11.48;;;13.90;99.90;;;;;;5033283;28;20052;-84
2022/05/24 07:54:14;;;;;;;17.55;10.40;;;14.00;99.90;;;;;;5033084;28;20045;-83
2022/05/24 07:56:41;;;;;;;21.60;10.80;;;14.10;99.90;;;;;;5032715;28;20056;-82
2022/05/24 07:59:08;;;;;;;20.33;10.95;;;14.20;99.90;;;;;;5036820;28;20479;-81
2022/05/24 08:01:36;;;;;;;13.52;9.25;;;14.30;99.90;;;;;;5035333;28;20053;-85
2022/05/24 08:04:03;;;;;;;12.30;8.57;;;14.40;99.90;;;;;;5035461;28;20053;-83
2022/05/24 08:06:28;;;;;;;17.45;7.75;;;14.50;99.90;;;;;;5036373;28;20057;-81
2022/05/24 08:08:54;;;;;;;16.35;7.38;;;14.70;99.90;;;;;;5037936;28;20566;-81
2022/05/24 08:11:20;;;;;;;13.57;6.70;;;14.80;99.90;;;;;;5038356;28;20099;-82
2022/05/24 08:13:45;;;;;;;14.85;6.10;;;15.70;99.90;;;;;;5036647;28;20045;-83
2022/05/24 08:16:11;;;;;;;11.02;5.00;;;17.00;99.90;;;;;;5035315;28;20406;-83
2022/05/24 08:18:37;;;;;;;11.10;4.57;;;18.10;99.90;;;;;;5035458;28;20065;-83
2022/05/24 08:21:03;;;;;;;8.98;5.32;;;19.00;99.90;;;;;;5035238;28;20057;-83
2022/05/24 08:23:29;;;;;;;10.70;5.10;;;19.40;99.90;;;;;;5034305;28;20057;-84
2022/05/24 08:25:55;;;;;;;10.38;5.10;;;19.90;99.90;;;;;;5035587;28;20079;-83
2022/05/24 08:28:21;;;;;;;7.97;4.53;;;19.80;99.90;;;;;;5035587;28;20056;-82
2022/05/24 08:30:46;;;;;;;8.32;4.03;;;20.00;99.90;;;;;;5035311;28;20050;-83
2022/05/24 08:33:14;;;;;;;10.25;4.13;;;19.90;99.90;;;;;;5035104;28;20068;-90
2022/05/24 08:35:42;;;;;;;9.32;3.80;;;19.30;99.90;;;;;;5035017;28;20045;-83
2022/05/24 08:38:12;;;;;;;9.35;3.42;;;19.10;99.90;;;;;;5034744;28;20053;-83
2022/05/24 08:40:40;;;;;;;6.15;2.90;;;18.70;99.90;;;;;;5033990;28;20053;-83
2022/05/24 08:43:53;;;;;;;7.50;3.10;;;19.20;99.90;;;;;;5034991;28;20041;-82
2022/05/24 08:49:15;;;;;;;5.97;2.47;;;20.10;99.90;;;;;;5052479;28;20053;-86
2022/05/24 08:51:56;;;;;;;9.70;2.83;;;21.10;99.90;;;;;;5052374;28;20103;-84
2022/05/24 08:54:38;;;;;;;4.45;2.60;;;21.90;99.90;;;;;;5035567;28;20106;-84
2022/05/24 08:57:14;;;;;;;7.80;2.83;;;22.50;99.90;;;;;;5019318;28;20055;-83
2022/05/24 08:59:56;;;;;;;6.22;2.75;;;22.80;99.90;;;;;;5052144;28;20132;-83
2022/05/24 09:02:22;;;;;;;7.90;2.95;;;22.10;99.90;;;;;;5035473;28;20469;-83
2022/05/24 09:04:49;;;;;;;7.45;2.55;;;20.80;99.90;;;;;;5052361;28;20049;-82
2022/05/24 09:07:37;;;;;;;8.52;2.80;;;19.90;99.90;;;;;;5052243;28;20131;-82
2022/05/24 09:10:26;;;;;;;6.43;2.58;;;18.80;99.90;;;;;;5051562;28;20058;-81
2022/05/24 09:13:22;;;;;;;8.82;3.08;;;17.90;99.90;;;;;;5035103;28;20057;-84
2022/05/24 09:15:53;;;;;;;10.68;3.10;;;17.20;99.90;;;;;;4992542;28;20050;-83
2022/05/24 09:18:31;;;;;;;7.70;3.33;;;16.70;99.90;;;;;;4976315;28;20100;-81
2022/05/24 09:20:57;;;;;;;9.02;3.40;;;16.40;99.90;;;;;;4992684;28;20133;-81
2022/05/24 09:23:29;;;;;;;10.70;4.18;;;16.10;99.90;;;;;;4976609;28;20097;-81
2022/05/24 09:26:09;;;;;;;6.18;3.28;;;15.90;99.90;;;;;;4976353;28;20058;-82
2022/05/24 09:28:41;;;;;;;6.93;3.53;;;15.80;99.90;;;;;;4976748;28;20100;-82
2022/05/24 09:31:08;;;;;;;8.10;3.70;;;16.00;99.90;;;;;;4976900;28;20136;-81
2022/05/24 09:33:40;;;;;;;5.18;3.05;;;16.30;99.90;;;;;;4992738;28;20050;-81
2022/05/24 09:36:06;;;;;;;7.28;4.00;;;16.70;99.90;;;;;;4992442;28;20053;-81
2022/05/24 09:38:38;;;;;;;4.25;3.00;;;17.20;99.90;;;;;;4992371;28;20061;-81
2022/05/24 09:41:22;;;;;;;6.28;3.38;;;17.50;99.90;;;;;;4975834;28;20136;-82
2022/05/24 09:44:06;;;;;;;8.60;3.33;;;17.80;99.90;;;;;;4992463;28;20447;-83
2022/05/24 09:46:35;;;;;;;6.47;3.65;;;17.70;99.90;;;;;;4992259;28;20070;-81
2022/05/24 09:49:16;;;;;;;5.75;2.75;;;17.50;99.90;;;;;;4992354;28;20058;-81
2022/05/24 09:51:43;;;;;;;5.10;2.58;;;17.10;99.90;;;;;;5004794;28;20099;-82
2022/05/24 09:54:16;;;;;;;2.75;2.00;;;16.70;99.90;;;;;;5032548;28;20084;-81
2022/05/24 09:57:05;;;;;;;5.40;1.10;;;16.50;99.90;;;;;;5032260;28;20045;-81
2022/05/24 09:59:32;;;;;;;2.60;1.05;;;16.60;99.90;;;;;;5016159;28;20140;-81
2022/05/24 10:01:59;;;;;;;2.35;0.90;;;16.70;99.90;;;;;;5032194;28;20089;-82
2022/05/24 10:04:33;;;;;;;2.83;1.00;;;16.80;99.90;;;;;;5033486;28;20415;-81
2022/05/24 10:07:00;;;;;;;5.65;1.40;;;16.80;99.90;;;;;;5033204;28;20049;-81
2022/05/24 10:09:38;;;;;;;2.30;0.95;;;16.90;99.90;;;;;;5033369;28;20132;-82
2022/05/24 10:12:24;;;;;;;1.98;1.05;;;17.10;99.90;;;;;;5033051;28;20080;-81
2022/05/24 10:15:02;;;;;;;2.67;1.15;;;17.10;99.90;;;;;;5032723;28;20171;-81
2022/05/24 10:18:19;;;;;;;4.45;1.20;;;16.70;99.90;;;;;;5032209;28;20088;-81
2022/05/24 10:21:05;;;;;;;4.15;1.00;;;16.10;99.90;;;;;;5050255;28;20053;-83
2022/05/24 10:23:49;;;;;;;7.90;1.10;;;15.70;99.90;;;;;;5050629;28;20135;-81
2022/05/24 10:26:47;;;;;;;1.73;0.93;;;16.00;99.90;;;;;;5034029;28;20049;-82
2022/05/24 10:29:24;;;;;;;3.55;1.08;;;18.20;99.90;;;;;;4991282;28;20054;-81
2022/05/24 10:31:57;;;;;;;2.30;0.98;;;20.10;99.90;;;;;;4991351;28;20050;-81
2022/05/24 10:40:44;;;;;;;2.25;0.65;;;19.20;99.90;;;;;;4975032;28;20141;-80
2022/05/24 10:43:15;;;;;;;2.00;0.50;;;17.50;99.90;;;;;;4991072;28;20070;-80
2022/05/24 10:46:01;;;;;;;4.60;0.73;;;16.50;99.90;;;;;;4990768;28;20137;-81
2022/05/24 10:48:37;;;;;;;1.48;0.55;;;15.80;99.90;;;;;;4990974;28;20479;-80
2022/05/24 10:51:21;;;;;;;4.63;0.70;;;15.30;99.90;;;;;;4990862;28;20062;-82
2022/05/24 10:53:53;;;;;;;1.15;0.50;;;14.90;99.90;;;;;;4991077;28;20170;-82
2022/05/24 10:56:46;;;;;;;3.20;0.70;;;14.70;99.90;;;;;;4974844;28;20050;-80
2022/05/24 10:59:11;;;;;;;4.05;0.95;;;14.40;99.90;;;;;;4990976;28;20062;-83
2022/05/24 11:01:44;;;;;;;3.78;0.73;;;14.10;99.90;;;;;;4974710;28;20049;-80
2022/05/24 11:04:15;;;;;;;2.75;0.90;;;14.10;99.90;;;;;;4990748;28;20058;-80
2022/05/24 11:06:51;;;;;;;1.58;1.10;;;14.20;99.90;;;;;;5024853;28;20061;-80
2022/05/24 11:09:23;;;;;;;2.25;1.20;;;14.40;99.90;;;;;;5032329;28;20372;-81
2022/05/24 11:11:59;;;;;;;4.85;1.65;;;14.60;99.90;;;;;;5032582;28;20437;-81
2022/05/24 11:14:28;;;;;;;3.15;1.80;;;14.50;99.90;;;;;;5031567;28;20422;-80
2022/05/24 11:16:56;;;;;;;4.35;2.00;;;14.30;99.90;;;;;;5032149;28;20046;-81
2022/05/24 11:19:39;;;;;;;4.72;2.13;;;14.10;99.90;;;;;;5034003;28;20116;-80
2022/05/24 11:22:25;;;;;;;5.32;2.20;;;13.90;99.90;;;;;;5032902;28;20119;-80
2022/05/24 11:25:21;;;;;;;4.35;2.10;;;13.80;99.90;;;;;;5032383;28;20056;-80
2022/05/24 11:28:11;;;;;;;6.85;2.55;;;13.60;99.90;;;;;;5032675;28;20491;-81
2022/05/24 11:30:40;;;;;;;4.23;1.93;;;13.50;99.90;;;;;;5032471;28;20041;-80
2022/05/24 11:33:10;;;;;;;7.80;2.63;;;13.70;99.90;;;;;;5034376;28;20120;-81
2022/05/24 11:35:50;;;;;;;4.88;2.20;;;13.60;99.90;;;;;;5018561;28;20052;-80
2022/05/24 11:38:18;;;;;;;4.85;2.20;;;13.40;99.90;;;;;;5035126;28;20057;-80
2022/05/24 11:41:14;;;;;;;5.05;2.70;;;13.20;99.90;;;;;;5035027;28;20121;-81
2022/05/24 11:43:43;;;;;;;4.80;1.70;;;13.10;99.90;;;;;;5035189;28;20052;-88
2022/05/24 11:46:27;;;;;;;5.60;1.80;;;13.10;99.90;;;;;;5034890;28;20584;-83
2022/05/24 11:48:55;;;;;;;4.15;1.77;;;13.20;99.90;;;;;;5034795;28;20037;-81
2022/05/24 11:51:39;;;;;;;5.63;1.88;;;13.10;99.90;;;;;;5034756;28;20061;-82
2022/05/24 11:54:28;;;;;;;4.18;1.73;;;13.30;99.90;;;;;;5036056;28;20045;-82
2022/05/24 11:57:02;;;;;;;3.53;1.70;;;13.40;99.90;;;;;;5036715;28;20418;-83
2022/05/24 11:59:40;;;;;;;3.70;1.83;;;13.50;99.90;;;;;;5053424;28;20530;-81
2022/05/24 12:02:25;;;;;;;4.00;1.35;;;14.10;99.90;;;;;;5053276;28;20441;-80
2022/05/24 12:07:56;;;;;;;1.95;1.05;;;16.60;99.90;;;;;;5053283;28;20045;-81
2022/05/24 12:10:21;;;;;;;2.70;1.00;;;17.20;99.90;;;;;;5052958;28;20162;-83
2022/05/24 12:12:55;;;;;;;2.17;0.98;;;17.50;99.90;;;;;;5053271;28;20071;-81
2022/05/24 12:15:30;;;;;;;3.08;1.15;;;18.70;99.90;;;;;;5053071;28;20064;-84
2022/05/24 12:17:58;;;;;;;3.03;1.27;;;19.80;99.90;;;;;;5052979;28;20128;-81
2022/05/24 12:20:32;;;;;;;1.20;1.00;;;20.40;99.90;;;;;;5036176;28;20153;-85
2022/05/24 12:23:07;;;;;;;4.18;1.02;;;20.80;99.90;;;;;;5036233;28;20049;-83
2022/05/24 12:26:01;;;;;;;2.20;0.90;;;21.30;99.90;;;;;;5053071;28;20119;-82
2022/05/24 12:28:37;;;;;;;3.35;0.80;;;21.10;99.90;;;;;;5052755;28;20061;-82
2022/05/24 12:31:17;;;;;;;1.98;0.88;;;20.70;99.90;;;;;;5052649;28;20498;-82
2022/05/24 12:33:56;;;;;;;2.63;0.73;;;20.70;99.90;;;;;;5033618;28;20049;-82
2022/05/24 12:36:29;;;;;;;1.67;0.70;;;21.50;99.90;;;;;;5033957;28;20055;-89
2022/05/24 12:39:07;;;;;;;3.17;0.68;;;22.60;99.90;;;;;;5035056;28;20064;-82
2022/05/24 12:41:43;;;;;;;1.88;0.70;;;23.50;90.70;;;;;;5035164;28;20056;-81
2022/05/24 12:44:18;;;;;;;1.88;0.50;;;23.90;75.70;;;;;;5035317;28;20064;-82
2022/05/24 12:46:54;;;;;;;2.22;0.45;;;23.80;94.00;;;;;;5017741;28;20049;-83
2022/05/24 12:49:26;;;;;;;1.40;0.60;;;24.70;69.50;;;;;;5034912;28;20053;-83
2022/05/24 12:52:11;;;;;;;2.42;0.60;;;24.60;68.00;;;;;;5034779;28;20132;-82
2022/05/24 12:54:45;;;;;;;1.38;0.80;;;24.10;77.00;;;;;;5034845;28;20049;-81
2022/05/24 12:57:34;;;;;;;2.50;0.80;;;23.40;82.60;;;;;;5033446;28;20132;-81
2022/05/24 13:00:18;;;;;;;3.08;0.85;;;22.50;82.90;;;;;;5034766;28;20057;-81
2022/05/24 13:02:47;;;;;;;3.70;0.68;;;22.30;92.10;;;;;;5034405;28;20045;-82
2022/05/24 13:05:37;;;;;;;2.03;0.90;;;22.60;92.70;;;;;;5034040;28;20596;-81
2022/05/24 13:08:03;;;;;;;2.65;0.93;;;23.50;71.20;;;;;;5034890;28;20065;-81
2022/05/24 13:10:35;;;;;;;2.08;0.73;;;23.70;70.10;;;;;;5035032;28;20041;-83
2022/05/24 13:13:05;;;;;;;3.95;1.02;;;23.50;68.80;;;;;;5033912;28;20052;-82
2022/05/24 13:15:32;;;;;;;5.75;1.02;;;23.40;70.70;;;;;;5033893;28;20540;-83
2022/05/24 13:18:02;;;;;;;2.20;0.90;;;23.60;71.00;;;;;;5033752;28;20080;-82
2022/05/24 13:20:42;;;;;;;3.88;1.38;;;23.80;67.40;;;;;;5034410;28;20481;-81
2022/05/24 13:23:18;;;;;;;2.17;1.08;;;23.10;67.20;;;;;;5034869;28;20053;-81
2022/05/24 13:25:56;;;;;;;2.92;1.05;;;22.00;80.30;;;;;;5036554;28;20095;-82
2022/05/24 13:28:43;;;;;;;1.35;0.70;;;21.00;89.60;;;;;;5035073;28;20054;-81